createdAt,value
2019-04-16T00:01:21.947Z,6.80
2019-04-16T00:03:55.280Z,6.76
2019-04-16T00:06:31.583Z,6.67
2019-04-16T00:09:06.913Z,6.53
2019-04-16T00:11:47.100Z,6.36
2019-04-16T00:14:35.262Z,6.33
2019-04-16T00:17:04.656Z,6.20
2019-04-16T00:19:34.773Z,6.19
2019-04-16T00:22:32.656Z,6.16
2019-04-16T00:25:01.944Z,6.35
2019-04-16T00:27:31.324Z,6.49
2019-04-16T00:30:03.933Z,6.22
2019-04-16T00:32:31.649Z,5.99
2019-04-16T00:35:01.069Z,5.86
2019-04-16T00:37:30.391Z,5.73
2019-04-16T00:39:59.562Z,5.56
2019-04-16T00:42:28.780Z,5.33
2019-04-16T00:44:57.978Z,5.17
2019-04-16T00:47:27.179Z,5.08
2019-04-16T00:49:58.817Z,5.13
2019-04-16T00:52:27.277Z,5.23
2019-04-16T00:54:56.972Z,5.21
2019-04-16T00:57:26.262Z,4.97
2019-04-16T00:59:56.768Z,4.93
2019-04-16T01:02:26.182Z,4.98
2019-04-16T01:04:55.361Z,5.08
2019-04-16T01:07:24.576Z,5.37
2019-04-16T01:09:53.837Z,5.43
2019-04-16T01:12:23.034Z,5.28
2019-04-16T01:14:52.413Z,5.26
2019-04-16T01:17:21.581Z,5.28
2019-04-16T01:19:50.763Z,5.29
2019-04-16T01:22:19.921Z,5.31
2019-04-16T01:24:51.861Z,5.28
2019-04-16T01:27:23.321Z,4.80
2019-04-16T01:29:52.537Z,4.48
2019-04-16T01:32:45.657Z,4.42
2019-04-16T01:35:32.722Z,4.33
2019-04-16T01:38:19.900Z,4.41
2019-04-16T01:40:54.778Z,4.72
2019-04-16T01:43:25.746Z,4.74
2019-04-16T01:45:55.108Z,4.82
2019-04-16T01:48:24.307Z,4.52
2019-04-16T01:50:55.534Z,4.25
2019-04-16T01:53:26.185Z,3.93
2019-04-16T01:55:57.041Z,3.71
2019-04-16T01:58:26.279Z,3.70
2019-04-16T02:00:55.467Z,3.76
2019-04-16T02:06:07.571Z,3.78
2019-04-16T02:08:36.769Z,3.70
2019-04-16T02:11:09.579Z,3.61
2019-04-16T02:13:36.955Z,3.70
2019-04-16T02:16:06.344Z,3.79
2019-04-16T02:18:35.492Z,3.97
2019-04-16T02:21:09.604Z,4.01
2019-04-16T02:23:35.638Z,3.94
2019-04-16T02:26:05.004Z,3.79
2019-04-16T02:28:34.329Z,3.65
2019-04-16T02:31:03.519Z,3.55
2019-04-16T02:33:32.668Z,3.56
2019-04-16T02:36:01.984Z,3.66
2019-04-16T02:38:31.200Z,3.46
2019-04-16T02:41:00.504Z,3.44
2019-04-16T02:43:29.651Z,3.43
2019-04-16T02:45:58.962Z,3.40
2019-04-16T02:48:28.121Z,3.36
2019-04-16T02:51:05.300Z,3.32
2019-04-16T02:53:47.287Z,3.31
2019-04-16T02:56:44.429Z,3.26
2019-04-16T02:59:17.355Z,3.31
2019-04-16T03:02:14.904Z,3.38
2019-04-16T03:04:48.151Z,3.34
2019-04-16T03:07:17.775Z,3.45
2019-04-16T03:10:00.311Z,3.34
2019-04-16T03:12:20.963Z,3.48
2019-04-16T03:14:48.724Z,3.42
2019-04-16T03:17:39.627Z,3.37
2019-04-16T03:20:09.277Z,3.30
2019-04-16T03:22:38.451Z,3.27
2019-04-16T03:25:12.645Z,3.23
2019-04-16T03:27:39.030Z,3.10
2019-04-16T03:30:09.363Z,3.00
2019-04-16T03:32:58.384Z,3.18
2019-04-16T03:35:27.614Z,3.55
2019-04-16T03:37:56.806Z,3.69
2019-04-16T03:40:26.159Z,3.94
2019-04-16T03:42:58.976Z,3.92
2019-04-16T03:45:26.627Z,3.98
2019-04-16T03:47:55.805Z,4.03
2019-04-16T03:50:24.981Z,3.84
2019-04-16T03:52:54.167Z,3.50
2019-04-16T03:55:26.315Z,3.22
2019-04-16T03:57:54.399Z,3.13
2019-04-16T04:00:23.721Z,2.99
2019-04-16T04:02:55.089Z,2.88
2019-04-16T04:05:23.982Z,2.93
2019-04-16T04:07:55.226Z,2.84
2019-04-16T04:10:31.002Z,2.94
2019-04-16T04:12:55.166Z,3.04
2019-04-16T04:15:26.392Z,3.07
2019-04-16T04:17:55.253Z,3.09
2019-04-16T04:20:24.408Z,3.01
2019-04-16T04:22:56.781Z,2.99
2019-04-16T04:25:24.629Z,2.85
2019-04-16T04:27:53.896Z,2.78
2019-04-16T04:30:25.670Z,2.69
2019-04-16T04:32:55.589Z,2.67
2019-04-16T04:35:24.744Z,2.66
2019-04-16T04:37:53.944Z,2.71
2019-04-16T04:40:23.111Z,2.76
2019-04-16T04:42:57.783Z,2.83
2019-04-16T04:45:26.190Z,2.93
2019-04-16T04:47:55.516Z,2.97
2019-04-16T04:50:24.799Z,2.97
2019-04-16T04:52:53.994Z,3.00
2019-04-16T04:55:23.445Z,2.97
2019-04-16T04:57:54.198Z,3.04
2019-04-16T05:00:23.723Z,3.44
2019-04-16T05:02:52.887Z,3.67
2019-04-16T05:05:30.317Z,3.59
2019-04-16T05:08:00.630Z,3.52
2019-04-16T05:10:30.042Z,3.51
2019-04-16T05:13:00.610Z,3.31
2019-04-16T05:15:30.179Z,3.22
2019-04-16T05:17:59.405Z,3.31
2019-04-16T05:20:29.972Z,3.30
2019-04-16T05:22:59.311Z,3.24
2019-04-16T05:25:32.966Z,3.38
2019-04-16T05:27:59.461Z,3.44
2019-04-16T05:30:28.734Z,3.69
2019-04-16T05:32:57.993Z,3.94
2019-04-16T05:35:27.281Z,4.01
2019-04-16T05:37:56.531Z,4.14
2019-04-16T05:40:27.594Z,4.30
2019-04-16T05:42:58.886Z,4.35
2019-04-16T05:45:27.547Z,4.47
2019-04-16T05:47:56.709Z,4.46
2019-04-16T05:50:28.505Z,4.34
2019-04-16T05:52:57.731Z,4.40
2019-04-16T05:55:49.894Z,4.37
2019-04-16T05:58:18.605Z,4.55
2019-04-16T06:01:05.712Z,4.68
2019-04-16T06:03:34.988Z,4.64
2019-04-16T06:06:04.185Z,4.70
2019-04-16T06:08:33.343Z,4.88
2019-04-16T06:11:02.526Z,5.04
2019-04-16T06:13:46.681Z,5.74
2019-04-16T06:16:43.994Z,7.27
2019-04-16T06:19:31.190Z,8.52
2019-04-16T06:22:18.087Z,9.49
2019-04-16T06:25:12.216Z,9.91
2019-04-16T06:27:55.515Z,9.02
2019-04-16T06:30:48.297Z,7.57
2019-04-16T06:33:25.134Z,7.12
2019-04-16T06:36:13.306Z,7.20
2019-04-16T06:38:45.867Z,7.35
2019-04-16T06:41:41.958Z,7.41
2019-04-16T06:44:14.997Z,7.50
2019-04-16T06:46:54.886Z,7.70
2019-04-16T06:49:41.942Z,8.11
2019-04-16T06:52:42.509Z,8.42
2019-04-16T06:55:28.865Z,8.74
2019-04-16T06:58:12.461Z,8.32
2019-04-16T07:01:07.935Z,8.11
2019-04-16T07:03:49.750Z,7.98
2019-04-16T07:06:37.167Z,8.24
2019-04-16T07:09:41.501Z,8.37
2019-04-16T07:12:07.606Z,8.47
2019-04-16T07:14:36.806Z,8.60
2019-04-16T07:17:05.966Z,8.60
2019-04-16T07:19:35.178Z,8.67
2019-04-16T07:22:04.432Z,8.78
2019-04-16T07:24:36.828Z,8.99
2019-04-16T07:27:04.700Z,9.43
2019-04-16T07:29:47.393Z,9.29
2019-04-16T07:32:38.685Z,9.51
2019-04-16T07:35:19.011Z,9.75
2019-04-16T07:38:11.301Z,9.81
2019-04-16T07:40:59.505Z,9.71
2019-04-16T07:43:46.559Z,9.68
2019-04-16T07:46:34.706Z,9.81
2019-04-16T07:49:13.790Z,10.12
2019-04-16T07:52:00.832Z,10.44
2019-04-16T07:54:47.887Z,10.25
2019-04-16T07:57:17.049Z,10.29
2019-04-16T07:59:46.244Z,10.46
2019-04-16T08:02:17.703Z,10.75
2019-04-16T08:04:46.385Z,10.94
2019-04-16T08:07:20.213Z,10.84
2019-04-16T08:09:46.741Z,10.80
2019-04-16T08:12:29.327Z,10.89
2019-04-16T08:14:49.000Z,11.00
2019-04-16T08:17:18.353Z,11.27
2019-04-16T08:19:48.968Z,11.45
2019-04-16T08:22:18.745Z,11.56
2019-04-16T08:24:57.586Z,11.73
2019-04-16T08:27:23.854Z,12.07
2019-04-16T08:29:53.280Z,12.23
2019-04-16T08:32:25.634Z,12.24
2019-04-16T08:34:53.754Z,12.34
2019-04-16T08:37:22.945Z,12.48
2019-04-16T08:39:52.418Z,12.56
2019-04-16T08:42:24.683Z,12.67
2019-04-16T08:44:52.544Z,12.62
2019-04-16T08:47:21.768Z,12.58
2019-04-16T08:49:54.077Z,12.62
2019-04-16T08:52:22.046Z,12.62
2019-04-16T08:54:54.752Z,12.54
2019-04-16T08:57:22.435Z,12.62
2019-04-16T08:59:51.636Z,12.75
2019-04-16T09:02:23.507Z,12.62
2019-04-16T09:04:53.383Z,12.74
2019-04-16T09:07:41.219Z,12.89
2019-04-16T09:10:23.551Z,13.10
2019-04-16T09:13:03.450Z,13.27
2019-04-16T09:15:27.313Z,13.43
2019-04-16T09:18:09.389Z,13.47
2019-04-16T09:20:40.513Z,13.79
2019-04-16T09:23:09.764Z,13.45
2019-04-16T09:26:12.983Z,13.50
2019-04-16T09:28:43.911Z,13.62
2019-04-16T09:31:37.902Z,13.87
2019-04-16T09:34:24.006Z,13.76
2019-04-16T09:37:12.266Z,13.67
2019-04-16T09:40:16.657Z,13.86
2019-04-16T09:42:40.651Z,13.58
2019-04-16T09:45:11.799Z,13.76
2019-04-16T09:47:41.001Z,13.75
2019-04-16T09:50:11.543Z,14.02
2019-04-16T09:52:40.899Z,14.14
2019-04-16T09:55:10.062Z,14.46
2019-04-16T09:57:39.241Z,14.48
2019-04-16T10:00:11.751Z,14.53
2019-04-16T10:02:41.149Z,14.73
2019-04-16T10:05:10.720Z,14.80
2019-04-16T10:07:41.032Z,14.89
2019-04-16T10:10:10.618Z,15.17
2019-04-16T10:12:39.850Z,15.01
2019-04-16T10:15:10.045Z,14.91
2019-04-16T10:17:39.393Z,15.21
2019-04-16T10:20:08.825Z,15.27
2019-04-16T10:22:38.009Z,15.42
2019-04-16T10:25:15.168Z,15.26
2019-04-16T10:28:06.445Z,15.30
2019-04-16T10:30:46.655Z,15.21
2019-04-16T10:33:15.871Z,15.40
2019-04-16T10:35:45.014Z,15.48
2019-04-16T10:38:29.247Z,15.51
2019-04-16T10:41:05.223Z,15.73
2019-04-16T10:43:45.285Z,16.14
2019-04-16T10:46:26.434Z,16.04
2019-04-16T10:49:10.782Z,15.79
2019-04-16T10:52:03.969Z,15.63
2019-04-16T10:54:40.647Z,15.70
2019-04-16T10:57:31.194Z,15.87
2019-04-16T11:00:13.608Z,16.19
2019-04-16T11:02:45.990Z,16.22
2019-04-16T11:05:40.312Z,16.47
2019-04-16T11:08:10.755Z,16.48
2019-04-16T11:10:39.949Z,16.40
2019-04-16T11:13:12.554Z,16.33
2019-04-16T11:15:41.842Z,16.57
2019-04-16T11:18:10.931Z,16.72
2019-04-16T11:20:40.108Z,17.04
2019-04-16T11:23:09.333Z,17.19
2019-04-16T11:25:38.716Z,17.19
2019-04-16T11:28:07.945Z,17.17
2019-04-16T11:30:40.329Z,17.39
2019-04-16T11:33:09.694Z,17.55
2019-04-16T11:35:38.901Z,17.43
2019-04-16T11:38:09.104Z,17.61
2019-04-16T11:40:41.076Z,17.71
2019-04-16T11:43:09.549Z,17.82
2019-04-16T11:45:38.820Z,18.21
2019-04-16T11:48:08.056Z,18.43
2019-04-16T11:50:37.335Z,18.65
2019-04-16T11:53:06.523Z,18.89
2019-04-16T11:55:35.817Z,18.64
2019-04-16T11:58:10.459Z,18.90
2019-04-16T12:00:45.629Z,18.73
2019-04-16T12:03:36.536Z,18.36
2019-04-16T12:06:28.358Z,17.91
2019-04-16T12:09:22.157Z,17.63
2019-04-16T12:12:02.485Z,17.42
2019-04-16T12:14:56.856Z,17.68
2019-04-16T12:17:36.307Z,17.95
2019-04-16T12:20:20.178Z,18.04
2019-04-16T12:23:02.827Z,18.04
2019-04-16T12:25:48.618Z,18.04
2019-04-16T12:28:35.531Z,17.98
2019-04-16T12:31:09.631Z,18.02
2019-04-16T12:33:57.804Z,18.17
2019-04-16T12:36:45.969Z,17.90
2019-04-16T12:39:35.781Z,17.73
2019-04-16T12:42:08.205Z,17.82
2019-04-16T12:45:09.536Z,17.53
2019-04-16T12:47:49.108Z,17.43
2019-04-16T12:50:35.335Z,17.23
2019-04-16T12:53:15.332Z,17.04
2019-04-16T12:56:08.574Z,16.90
2019-04-16T12:58:51.682Z,16.84
2019-04-16T13:01:40.011Z,16.53
2019-04-16T13:04:28.316Z,16.55
2019-04-16T13:07:01.343Z,16.26
2019-04-16T13:09:48.572Z,16.40
2019-04-16T13:12:26.708Z,16.26
2019-04-16T13:15:14.361Z,16.33
2019-04-16T13:18:09.726Z,16.38
2019-04-16T13:21:16.334Z,16.40
2019-04-16T13:23:52.564Z,16.50
2019-04-16T13:26:37.209Z,16.65
2019-04-16T13:29:11.833Z,16.76
2019-04-16T13:31:41.536Z,16.97
2019-04-16T13:34:10.723Z,17.23
2019-04-16T13:36:40.134Z,17.31
2019-04-16T13:39:25.097Z,17.43
2019-04-16T13:41:54.256Z,17.33
2019-04-16T13:44:25.427Z,17.57
2019-04-16T13:46:54.639Z,17.18
2019-04-16T13:49:42.989Z,17.49
2019-04-16T13:52:12.390Z,17.97
2019-04-16T13:55:10.402Z,18.40
2019-04-16T13:57:40.091Z,18.04
2019-04-16T14:00:23.636Z,18.19
2019-04-16T14:02:54.766Z,18.48
2019-04-16T14:05:24.340Z,18.12
2019-04-16T14:07:53.549Z,18.35
2019-04-16T14:10:22.814Z,18.46
2019-04-16T14:12:51.994Z,18.63
2019-04-16T14:15:31.706Z,18.54
2019-04-16T14:17:59.096Z,17.78
2019-04-16T14:20:25.378Z,18.06
2019-04-16T14:22:54.754Z,18.18
2019-04-16T14:25:23.955Z,18.01
2019-04-16T14:27:55.681Z,18.26
2019-04-16T14:30:28.924Z,18.49
2019-04-16T14:32:58.264Z,18.44
2019-04-16T14:35:33.418Z,18.89
2019-04-16T14:38:00.988Z,18.89
2019-04-16T14:40:30.860Z,18.59
2019-04-16T14:43:00.227Z,18.64
2019-04-16T14:45:58.282Z,18.83
2019-04-16T14:48:20.628Z,18.89
2019-04-16T14:50:49.791Z,18.86
2019-04-16T14:53:37.892Z,19.00
2019-04-16T14:56:18.860Z,18.09
2019-04-16T14:59:29.906Z,18.29
2019-04-16T15:01:52.749Z,18.27
2019-04-16T15:04:35.293Z,18.47
2019-04-16T15:07:10.327Z,18.04
2019-04-16T15:09:53.272Z,17.55
2019-04-16T15:12:53.478Z,17.50
2019-04-16T15:15:45.001Z,17.61
2019-04-16T15:18:27.335Z,17.62
2019-04-16T15:21:33.694Z,17.80
2019-04-16T15:24:20.205Z,17.77
2019-04-16T15:27:20.722Z,17.63
2019-04-16T15:30:11.695Z,17.64
2019-04-16T15:32:58.226Z,17.51
2019-04-16T15:35:38.266Z,17.47
2019-04-16T15:38:26.605Z,17.46
2019-04-16T15:40:58.976Z,17.36
2019-04-16T15:43:50.367Z,17.42
2019-04-16T15:46:40.975Z,17.55
2019-04-16T15:49:14.763Z,17.71
2019-04-16T15:51:51.575Z,17.64
2019-04-16T15:54:39.716Z,17.79
2019-04-16T15:57:32.020Z,17.87
2019-04-16T16:00:16.619Z,17.95
2019-04-16T16:02:59.281Z,17.77
2019-04-16T16:05:32.023Z,17.65
2019-04-16T16:08:14.123Z,17.56
2019-04-16T16:10:53.043Z,17.61
2019-04-16T16:13:22.654Z,17.64
2019-04-16T16:15:53.115Z,17.51
2019-04-16T16:18:22.337Z,17.35
2019-04-16T16:20:51.502Z,17.14
2019-04-16T16:23:20.804Z,17.02
2019-04-16T16:25:50.129Z,16.89
2019-04-16T16:28:19.430Z,16.84
2019-04-16T16:30:48.597Z,16.66
2019-04-16T16:33:17.807Z,16.71
2019-04-16T16:35:57.523Z,16.65
2019-04-16T16:38:20.812Z,16.46
2019-04-16T16:40:49.718Z,16.36
2019-04-16T16:43:19.670Z,16.33
2019-04-16T16:46:20.145Z,16.18
2019-04-16T16:48:54.692Z,16.20
2019-04-16T16:51:24.844Z,16.11
2019-04-16T16:54:11.451Z,16.00
2019-04-16T16:56:47.630Z,15.95
2019-04-16T16:59:26.269Z,15.45
2019-04-16T17:02:10.469Z,15.26
2019-04-16T17:04:43.520Z,15.15
2019-04-16T17:07:12.893Z,14.99
2019-04-16T17:09:42.131Z,14.94
2019-04-16T17:12:11.574Z,14.82
2019-04-16T17:14:40.770Z,14.85
2019-04-16T17:17:14.741Z,14.83
2019-04-16T17:19:41.403Z,14.85
2019-04-16T17:22:14.654Z,14.68
2019-04-16T17:24:42.813Z,14.60
2019-04-16T17:27:12.091Z,14.64
2019-04-16T17:29:41.295Z,14.72
2019-04-16T17:32:11.025Z,14.69
2019-04-16T17:34:41.836Z,14.66
2019-04-16T17:37:11.078Z,14.68
2019-04-16T17:39:52.434Z,14.68
2019-04-16T17:42:36.994Z,14.72
2019-04-16T17:45:21.077Z,14.71
2019-04-16T17:48:24.939Z,14.62
2019-04-16T17:51:13.106Z,14.58
2019-04-16T17:53:45.937Z,14.58
2019-04-16T17:56:34.459Z,14.65
2019-04-16T17:59:29.058Z,14.74
2019-04-16T18:02:21.030Z,14.74
2019-04-16T18:05:13.633Z,14.73
2019-04-16T18:08:08.302Z,14.63
2019-04-16T18:10:58.071Z,14.45
2019-04-16T18:13:58.747Z,14.46
2019-04-16T18:16:34.945Z,14.43
2019-04-16T18:19:38.314Z,14.37
2019-04-16T18:22:45.765Z,14.21
2019-04-16T18:25:54.915Z,14.02
2019-04-16T18:28:14.960Z,14.00
2019-04-16T18:30:52.359Z,13.85
2019-04-16T18:33:40.607Z,13.83
2019-04-16T18:36:19.762Z,13.73
2019-04-16T18:39:05.891Z,13.50
2019-04-16T18:41:57.152Z,13.47
2019-04-16T18:44:55.103Z,13.31
2019-04-16T18:47:39.573Z,13.32
2019-04-16T18:50:16.295Z,13.18
2019-04-16T18:52:45.782Z,13.10
2019-04-16T18:55:15.000Z,13.04
2019-04-16T18:57:44.212Z,13.01
2019-04-16T19:00:31.912Z,13.05
2019-04-16T19:03:01.676Z,12.98
2019-04-16T19:05:31.159Z,12.91
2019-04-16T19:08:01.028Z,12.78
2019-04-16T19:10:30.860Z,12.70
2019-04-16T19:13:00.535Z,12.76
2019-04-16T19:15:30.305Z,12.71
2019-04-16T19:17:59.697Z,12.55
2019-04-16T19:20:28.855Z,12.62
2019-04-16T19:22:58.087Z,12.52
2019-04-16T19:25:27.329Z,12.50
2019-04-16T19:27:56.747Z,12.52
2019-04-16T19:30:25.923Z,12.48
2019-04-16T19:33:00.262Z,12.41
2019-04-16T19:35:26.211Z,12.56
2019-04-16T19:37:55.397Z,12.50
2019-04-16T19:40:24.645Z,12.33
2019-04-16T19:42:54.048Z,12.23
2019-04-16T19:45:23.507Z,12.27
2019-04-16T19:48:00.318Z,12.19
2019-04-16T19:50:33.095Z,12.18
2019-04-16T19:52:57.289Z,12.09
2019-04-16T19:55:27.970Z,12.05
2019-04-16T19:57:58.004Z,12.08
2019-04-16T20:00:27.350Z,12.09
2019-04-16T20:02:56.819Z,12.08
2019-04-16T20:05:28.771Z,12.04
2019-04-16T20:07:57.757Z,12.02
2019-04-16T20:10:27.003Z,12.06
2019-04-16T20:12:59.190Z,11.92
2019-04-16T20:15:27.587Z,11.94
2019-04-16T20:17:57.292Z,11.87
2019-04-16T20:20:26.491Z,11.79
2019-04-16T20:22:55.719Z,11.66
2019-04-16T20:25:24.935Z,11.63
2019-04-16T20:27:54.164Z,11.60
2019-04-16T20:30:24.500Z,11.55
2019-04-16T20:32:53.674Z,11.53
2019-04-16T20:35:22.839Z,11.54
2019-04-16T20:37:54.271Z,11.50
2019-04-16T20:40:24.138Z,11.51
2019-04-16T20:42:53.653Z,11.56
2019-04-16T20:45:22.981Z,11.66
2019-04-16T20:47:52.176Z,11.58
2019-04-16T20:50:21.550Z,11.57
2019-04-16T20:52:51.071Z,11.59
2019-04-16T20:55:20.254Z,11.61
2019-04-16T20:57:49.607Z,11.61
2019-04-16T21:00:26.455Z,11.70
2019-04-16T21:02:57.032Z,11.68
2019-04-16T21:05:26.213Z,11.62
2019-04-16T21:07:55.421Z,11.60
2019-04-16T21:10:24.928Z,11.49
2019-04-16T21:12:55.067Z,11.34
2019-04-16T21:15:27.485Z,11.32
2019-04-16T21:17:55.681Z,11.34
2019-04-16T21:20:24.985Z,11.32
2019-04-16T21:22:57.394Z,11.29
2019-04-16T21:25:25.604Z,11.31
2019-04-16T21:28:14.417Z,11.25
2019-04-16T21:30:44.356Z,11.21
2019-04-16T21:33:20.442Z,11.18
2019-04-16T21:35:52.550Z,11.19
2019-04-16T21:38:42.276Z,11.21
2019-04-16T21:41:10.682Z,11.19
2019-04-16T21:43:40.421Z,11.07
2019-04-16T21:46:09.657Z,11.07
2019-04-16T21:48:39.491Z,11.19
2019-04-16T21:51:08.659Z,11.26
2019-04-16T21:53:37.847Z,11.24
2019-04-16T21:56:08.890Z,11.12
2019-04-16T21:58:38.367Z,11.15
2019-04-16T22:03:11.027Z,10.96
2019-04-16T22:05:40.262Z,10.94
2019-04-16T22:08:09.627Z,10.86
2019-04-16T22:10:38.965Z,10.79
2019-04-16T22:13:08.152Z,10.86
2019-04-16T22:15:37.324Z,10.80
2019-04-16T22:18:08.981Z,10.68
2019-04-16T22:20:37.431Z,10.72
2019-04-16T22:23:07.000Z,10.67
2019-04-16T22:25:36.308Z,10.73
2019-04-16T22:28:05.513Z,10.79
2019-04-16T22:30:35.804Z,10.66
2019-04-16T22:33:07.026Z,10.64
2019-04-16T22:35:36.207Z,10.55
2019-04-16T22:38:05.438Z,10.59
2019-04-16T22:40:44.560Z,10.58
2019-04-16T22:43:31.677Z,10.56
2019-04-16T22:46:19.959Z,10.57
2019-04-16T22:48:56.541Z,10.68
2019-04-16T22:51:26.711Z,10.77
2019-04-16T22:53:56.240Z,10.75
2019-04-16T22:56:53.748Z,10.73
2019-04-16T22:59:23.004Z,10.66
2019-04-16T23:01:53.370Z,10.71
2019-04-16T23:04:26.059Z,10.76
2019-04-16T23:06:53.938Z,10.86
2019-04-16T23:09:25.240Z,11.01
2019-04-16T23:11:55.898Z,11.17
2019-04-16T23:14:25.610Z,11.23
2019-04-16T23:16:55.074Z,11.20
2019-04-16T23:19:24.440Z,11.04
2019-04-16T23:21:53.645Z,10.90
2019-04-16T23:24:23.990Z,11.00
2019-04-16T23:26:53.310Z,11.13
2019-04-16T23:29:22.472Z,11.07
2019-04-16T23:31:55.056Z,11.12
2019-04-16T23:34:22.603Z,11.04
2019-04-16T23:36:51.945Z,11.00
2019-04-16T23:39:22.571Z,11.05
2019-04-16T23:41:51.753Z,10.89
2019-04-16T23:44:39.854Z,10.88
2019-04-16T23:47:25.750Z,10.97
2019-04-16T23:50:43.833Z,11.01
2019-04-16T23:53:07.982Z,10.99
2019-04-16T23:56:01.584Z,10.97
2019-04-16T23:58:46.455Z,10.89
